In Rescue
 
Open Full Screen Window  High Contrast Mode
October 19, 2020 7:49 PM CDT
Weather Information
Wind Direction
  ---
Wind Speed
  00 kt (0 mph)
Wind Gust
  00 kt (0 mph)
Altimeter
30.22 in
Visibility
10 SM
Temperature
-02° C
28° F
Dewpoint
-08° C
18° F
Humidity
64%
1hr Rain Fall
00.00 in.
24hr Rain Fall
00.00 in.
Sky Condition
Missing
VFR

METAR KVWU 200049Z AUTO 00000KT 10SM M02/M08 A3022 RMK AO2

FAA Disclaimer: The data displayed is for advisory purposes only and is not to be used for flight planning or operations.
Missing Cloud Data